sensor_id;sensor_type;location;lat;lon;timestamp;P1;durP1;ratioP1;P2;durP2;ratioP2
26690;SDS011;14307;51.718;8.938;2022-07-05T00:01:30;22.05;;;20.30;;
26690;SDS011;14307;51.718;8.938;2022-07-05T00:03:57;21.83;;;20.52;;
26690;SDS011;14307;51.718;8.938;2022-07-05T00:06:24;22.17;;;20.52;;
26690;SDS011;14307;51.718;8.938;2022-07-05T00:08:51;23.58;;;21.30;;
26690;SDS011;14307;51.718;8.938;2022-07-05T00:11:18;21.52;;;20.13;;
26690;SDS011;14307;51.718;8.938;2022-07-05T00:13:45;22.15;;;20.63;;
26690;SDS011;14307;51.718;8.938;2022-07-05T00:16:12;22.42;;;20.92;;
26690;SDS011;14307;51.718;8.938;2022-07-05T00:18:38;22.38;;;20.85;;
26690;SDS011;14307;51.718;8.938;2022-07-05T00:21:05;20.88;;;19.45;;
26690;SDS011;14307;51.718;8.938;2022-07-05T00:23:32;20.63;;;19.35;;
26690;SDS011;14307;51.718;8.938;2022-07-05T00:25:59;21.08;;;19.63;;
26690;SDS011;14307;51.718;8.938;2022-07-05T00:28:26;22.13;;;20.17;;
26690;SDS011;14307;51.718;8.938;2022-07-05T00:30:53;20.73;;;19.42;;
26690;SDS011;14307;51.718;8.938;2022-07-05T00:33:20;22.25;;;20.65;;
26690;SDS011;14307;51.718;8.938;2022-07-05T00:35:47;22.55;;;20.77;;
26690;SDS011;14307;51.718;8.938;2022-07-05T00:38:13;22.17;;;20.77;;
26690;SDS011;14307;51.718;8.938;2022-07-05T00:40:41;23.77;;;21.70;;
26690;SDS011;14307;51.718;8.938;2022-07-05T00:43:09;22.08;;;20.75;;
26690;SDS011;14307;51.718;8.938;2022-07-05T00:45:36;22.10;;;20.63;;
26690;SDS011;14307;51.718;8.938;2022-07-05T00:48:03;22.95;;;21.38;;
26690;SDS011;14307;51.718;8.938;2022-07-05T00:50:30;21.92;;;20.42;;
26690;SDS011;14307;51.718;8.938;2022-07-05T00:52:59;22.73;;;20.98;;
26690;SDS011;14307;51.718;8.938;2022-07-05T00:55:27;22.17;;;20.60;;
26690;SDS011;14307;51.718;8.938;2022-07-05T00:57:54;20.73;;;19.42;;
26690;SDS011;14307;51.718;8.938;2022-07-05T01:00:21;21.00;;;19.60;;
26690;SDS011;14307;51.718;8.938;2022-07-05T01:02:48;20.70;;;19.48;;
26690;SDS011;14307;51.718;8.938;2022-07-05T01:05:15;21.38;;;19.63;;
26690;SDS011;14307;51.718;8.938;2022-07-05T01:07:42;20.27;;;19.02;;
26690;SDS011;14307;51.718;8.938;2022-07-05T01:10:09;20.83;;;19.38;;
26690;SDS011;14307;51.718;8.938;2022-07-05T01:12:40;21.08;;;19.65;;
26690;SDS011;14307;51.718;8.938;2022-07-05T01:15:07;22.58;;;20.98;;
26690;SDS011;14307;51.718;8.938;2022-07-05T01:17:36;21.95;;;20.13;;
26690;SDS011;14307;51.718;8.938;2022-07-05T01:20:04;22.38;;;20.75;;
26690;SDS011;14307;51.718;8.938;2022-07-05T01:22:53;21.23;;;19.90;;
26690;SDS011;14307;51.718;8.938;2022-07-05T01:25:21;22.10;;;20.48;;
26690;SDS011;14307;51.718;8.938;2022-07-05T01:27:50;21.83;;;20.27;;
26690;SDS011;14307;51.718;8.938;2022-07-05T01:30:23;23.02;;;20.95;;
26690;SDS011;14307;51.718;8.938;2022-07-05T01:32:50;22.50;;;20.88;;
26690;SDS011;14307;51.718;8.938;2022-07-05T01:35:18;22.17;;;20.67;;
26690;SDS011;14307;51.718;8.938;2022-07-05T01:37:49;21.80;;;20.08;;
26690;SDS011;14307;51.718;8.938;2022-07-05T01:40:17;21.75;;;20.20;;
26690;SDS011;14307;51.718;8.938;2022-07-05T01:42:46;20.73;;;19.42;;
26690;SDS011;14307;51.718;8.938;2022-07-05T01:45:14;20.73;;;19.42;;
26690;SDS011;14307;51.718;8.938;2022-07-05T01:48:01;20.88;;;19.48;;
26690;SDS011;14307;51.718;8.938;2022-07-05T01:50:29;22.75;;;20.77;;
26690;SDS011;14307;51.718;8.938;2022-07-05T01:52:59;21.10;;;19.63;;
26690;SDS011;14307;51.718;8.938;2022-07-05T01:55:29;20.58;;;19.27;;
26690;SDS011;14307;51.718;8.938;2022-07-05T01:57:56;20.08;;;18.58;;
26690;SDS011;14307;51.718;8.938;2022-07-05T02:00:23;22.60;;;20.80;;
26690;SDS011;14307;51.718;8.938;2022-07-05T02:02:50;20.98;;;19.58;;
26690;SDS011;14307;51.718;8.938;2022-07-05T02:05:17;21.10;;;19.42;;
26690;SDS011;14307;51.718;8.938;2022-07-05T02:07:47;20.92;;;19.63;;
26690;SDS011;14307;51.718;8.938;2022-07-05T02:10:16;20.35;;;18.95;;
26690;SDS011;14307;51.718;8.938;2022-07-05T02:12:43;20.25;;;19.05;;
26690;SDS011;14307;51.718;8.938;2022-07-05T02:15:10;20.45;;;19.23;;
26690;SDS011;14307;51.718;8.938;2022-07-05T02:17:37;19.52;;;18.33;;
26690;SDS011;14307;51.718;8.938;2022-07-05T02:20:04;20.83;;;19.20;;
26690;SDS011;14307;51.718;8.938;2022-07-05T02:22:32;19.58;;;18.17;;
26690;SDS011;14307;51.718;8.938;2022-07-05T02:25:00;19.65;;;18.25;;
26690;SDS011;14307;51.718;8.938;2022-07-05T02:27:26;19.95;;;18.48;;
26690;SDS011;14307;51.718;8.938;2022-07-05T02:29:53;19.83;;;18.42;;
26690;SDS011;14307;51.718;8.938;2022-07-05T02:32:36;20.25;;;18.75;;
26690;SDS011;14307;51.718;8.938;2022-07-05T02:35:04;19.50;;;18.02;;
26690;SDS011;14307;51.718;8.938;2022-07-05T02:37:33;19.48;;;17.92;;
26690;SDS011;14307;51.718;8.938;2022-07-05T02:40:03;19.00;;;17.88;;
26690;SDS011;14307;51.718;8.938;2022-07-05T02:42:34;20.05;;;18.55;;
26690;SDS011;14307;51.718;8.938;2022-07-05T02:45:02;22.38;;;20.40;;
26690;SDS011;14307;51.718;8.938;2022-07-05T02:47:30;21.55;;;19.88;;
26690;SDS011;14307;51.718;8.938;2022-07-05T02:49:58;21.40;;;19.63;;
26690;SDS011;14307;51.718;8.938;2022-07-05T02:52:28;20.95;;;19.55;;
26690;SDS011;14307;51.718;8.938;2022-07-05T02:54:57;20.70;;;19.30;;
26690;SDS011;14307;51.718;8.938;2022-07-05T02:57:24;20.83;;;19.23;;
26690;SDS011;14307;51.718;8.938;2022-07-05T02:59:54;21.02;;;19.73;;
26690;SDS011;14307;51.718;8.938;2022-07-05T03:02:25;21.42;;;19.92;;
26690;SDS011;14307;51.718;8.938;2022-07-05T03:04:53;22.52;;;20.73;;
26690;SDS011;14307;51.718;8.938;2022-07-05T03:07:20;22.40;;;20.90;;
26690;SDS011;14307;51.718;8.938;2022-07-05T03:09:47;21.27;;;19.98;;
26690;SDS011;14307;51.718;8.938;2022-07-05T03:12:14;21.05;;;19.52;;
26690;SDS011;14307;51.718;8.938;2022-07-05T03:14:45;22.65;;;21.15;;
26690;SDS011;14307;51.718;8.938;2022-07-05T03:17:13;21.75;;;20.25;;
26690;SDS011;14307;51.718;8.938;2022-07-05T03:19:40;21.73;;;20.33;;
26690;SDS011;14307;51.718;8.938;2022-07-05T03:22:09;21.67;;;20.08;;
26690;SDS011;14307;51.718;8.938;2022-07-05T03:24:38;21.75;;;20.15;;
26690;SDS011;14307;51.718;8.938;2022-07-05T03:27:06;22.05;;;20.45;;
26690;SDS011;14307;51.718;8.938;2022-07-05T03:29:34;22.10;;;20.50;;
26690;SDS011;14307;51.718;8.938;2022-07-05T03:32:02;20.38;;;19.08;;
26690;SDS011;14307;51.718;8.938;2022-07-05T03:34:29;20.08;;;18.67;;
26690;SDS011;14307;51.718;8.938;2022-07-05T03:36:58;20.85;;;18.80;;
26690;SDS011;14307;51.718;8.938;2022-07-05T03:39:25;20.13;;;18.48;;
26690;SDS011;14307;51.718;8.938;2022-07-05T03:41:52;20.15;;;18.85;;
26690;SDS011;14307;51.718;8.938;2022-07-05T03:44:22;19.67;;;18.27;;
26690;SDS011;14307;51.718;8.938;2022-07-05T03:46:53;19.38;;;18.17;;
26690;SDS011;14307;51.718;8.938;2022-07-05T03:49:21;19.67;;;18.17;;
26690;SDS011;14307;51.718;8.938;2022-07-05T03:51:49;18.77;;;17.58;;
26690;SDS011;14307;51.718;8.938;2022-07-05T03:54:16;22.08;;;20.15;;
26690;SDS011;14307;51.718;8.938;2022-07-05T03:56:43;21.35;;;19.85;;
26690;SDS011;14307;51.718;8.938;2022-07-05T03:59:11;19.63;;;18.10;;
26690;SDS011;14307;51.718;8.938;2022-07-05T04:01:38;21.42;;;19.95;;
26690;SDS011;14307;51.718;8.938;2022-07-05T04:04:05;21.23;;;19.83;;
26690;SDS011;14307;51.718;8.938;2022-07-05T04:06:32;20.45;;;18.95;;
26690;SDS011;14307;51.718;8.938;2022-07-05T04:09:01;19.60;;;18.20;;
26690;SDS011;14307;51.718;8.938;2022-07-05T04:11:28;19.55;;;18.15;;
26690;SDS011;14307;51.718;8.938;2022-07-05T04:13:55;19.38;;;17.92;;
26690;SDS011;14307;51.718;8.938;2022-07-05T04:16:22;18.70;;;17.70;;
26690;SDS011;14307;51.718;8.938;2022-07-05T04:18:49;20.80;;;19.30;;
26690;SDS011;14307;51.718;8.938;2022-07-05T04:21:18;19.73;;;18.42;;
26690;SDS011;14307;51.718;8.938;2022-07-05T04:23:47;18.80;;;17.67;;
26690;SDS011;14307;51.718;8.938;2022-07-05T04:26:15;19.25;;;17.90;;
26690;SDS011;14307;51.718;8.938;2022-07-05T04:28:44;20.40;;;18.77;;
26690;SDS011;14307;51.718;8.938;2022-07-05T04:31:17;20.42;;;18.75;;
26690;SDS011;14307;51.718;8.938;2022-07-05T04:33:46;19.95;;;18.75;;
26690;SDS011;14307;51.718;8.938;2022-07-05T04:36:18;21.58;;;20.17;;
26690;SDS011;14307;51.718;8.938;2022-07-05T04:38:46;20.50;;;18.73;;
26690;SDS011;14307;51.718;8.938;2022-07-05T04:41:14;21.02;;;19.60;;
26690;SDS011;14307;51.718;8.938;2022-07-05T04:43:43;22.10;;;20.35;;
26690;SDS011;14307;51.718;8.938;2022-07-05T04:46:12;20.40;;;19.25;;
26690;SDS011;14307;51.718;8.938;2022-07-05T04:48:40;21.98;;;20.58;;
26690;SDS011;14307;51.718;8.938;2022-07-05T04:51:08;22.15;;;20.75;;
26690;SDS011;14307;51.718;8.938;2022-07-05T04:53:36;21.25;;;19.88;;
26690;SDS011;14307;51.718;8.938;2022-07-05T04:56:03;21.45;;;19.67;;
26690;SDS011;14307;51.718;8.938;2022-07-05T04:58:31;21.17;;;19.85;;
26690;SDS011;14307;51.718;8.938;2022-07-05T05:00:58;21.90;;;20.52;;
26690;SDS011;14307;51.718;8.938;2022-07-05T05:03:25;21.85;;;20.42;;
26690;SDS011;14307;51.718;8.938;2022-07-05T05:05:52;22.00;;;20.60;;
26690;SDS011;14307;51.718;8.938;2022-07-05T05:08:19;22.13;;;20.35;;
26690;SDS011;14307;51.718;8.938;2022-07-05T05:10:46;23.08;;;21.48;;
26690;SDS011;14307;51.718;8.938;2022-07-05T05:13:13;24.55;;;22.70;;
26690;SDS011;14307;51.718;8.938;2022-07-05T05:15:39;24.38;;;22.52;;
26690;SDS011;14307;51.718;8.938;2022-07-05T05:18:06;25.67;;;23.92;;
26690;SDS011;14307;51.718;8.938;2022-07-05T05:20:33;25.63;;;23.83;;
26690;SDS011;14307;51.718;8.938;2022-07-05T05:23:06;27.23;;;25.42;;
26690;SDS011;14307;51.718;8.938;2022-07-05T05:25:32;25.40;;;23.77;;
26690;SDS011;14307;51.718;8.938;2022-07-05T05:28:00;25.27;;;23.65;;
26690;SDS011;14307;51.718;8.938;2022-07-05T05:30:28;26.48;;;24.80;;
26690;SDS011;14307;51.718;8.938;2022-07-05T05:32:55;27.85;;;25.77;;
26690;SDS011;14307;51.718;8.938;2022-07-05T05:35:22;26.83;;;25.10;;
26690;SDS011;14307;51.718;8.938;2022-07-05T05:37:53;26.15;;;24.45;;
26690;SDS011;14307;51.718;8.938;2022-07-05T05:40:21;26.73;;;25.00;;
26690;SDS011;14307;51.718;8.938;2022-07-05T05:42:50;26.90;;;25.05;;
26690;SDS011;14307;51.718;8.938;2022-07-05T05:45:18;26.42;;;24.40;;
26690;SDS011;14307;51.718;8.938;2022-07-05T05:47:46;27.05;;;24.98;;
26690;SDS011;14307;51.718;8.938;2022-07-05T05:50:29;26.38;;;24.45;;
26690;SDS011;14307;51.718;8.938;2022-07-05T05:52:57;25.65;;;24.10;;
26690;SDS011;14307;51.718;8.938;2022-07-05T05:55:25;26.58;;;24.70;;
26690;SDS011;14307;51.718;8.938;2022-07-05T05:57:54;26.80;;;25.13;;
26690;SDS011;14307;51.718;8.938;2022-07-05T06:00:21;27.67;;;25.38;;
26690;SDS011;14307;51.718;8.938;2022-07-05T06:02:48;26.05;;;24.45;;
26690;SDS011;14307;51.718;8.938;2022-07-05T06:05:17;26.92;;;24.92;;
26690;SDS011;14307;51.718;8.938;2022-07-05T06:07:54;26.80;;;25.05;;
26690;SDS011;14307;51.718;8.938;2022-07-05T06:10:25;26.60;;;25.00;;
26690;SDS011;14307;51.718;8.938;2022-07-05T06:12:54;27.35;;;25.55;;
26690;SDS011;14307;51.718;8.938;2022-07-05T06:15:22;26.00;;;24.05;;
26690;SDS011;14307;51.718;8.938;2022-07-05T06:17:49;26.63;;;24.63;;
26690;SDS011;14307;51.718;8.938;2022-07-05T06:20:26;25.30;;;23.73;;
26690;SDS011;14307;51.718;8.938;2022-07-05T06:22:58;26.55;;;25.02;;
26690;SDS011;14307;51.718;8.938;2022-07-05T06:25:25;27.50;;;25.67;;
26690;SDS011;14307;51.718;8.938;2022-07-05T06:27:53;28.52;;;26.27;;
26690;SDS011;14307;51.718;8.938;2022-07-05T06:30:24;28.17;;;26.35;;
26690;SDS011;14307;51.718;8.938;2022-07-05T06:32:53;26.85;;;24.95;;
26690;SDS011;14307;51.718;8.938;2022-07-05T06:35:21;26.08;;;24.42;;
26690;SDS011;14307;51.718;8.938;2022-07-05T06:40:21;25.30;;;23.80;;
26690;SDS011;14307;51.718;8.938;2022-07-05T06:42:50;23.83;;;22.52;;
26690;SDS011;14307;51.718;8.938;2022-07-05T06:45:22;23.38;;;21.65;;
26690;SDS011;14307;51.718;8.938;2022-07-05T06:48:05;22.77;;;21.48;;
26690;SDS011;14307;51.718;8.938;2022-07-05T06:50:37;23.85;;;22.45;;
26690;SDS011;14307;51.718;8.938;2022-07-05T06:53:05;22.13;;;20.88;;
26690;SDS011;14307;51.718;8.938;2022-07-05T06:55:32;22.70;;;21.50;;
26690;SDS011;14307;51.718;8.938;2022-07-05T06:58:00;23.23;;;21.67;;
26690;SDS011;14307;51.718;8.938;2022-07-05T07:00:39;22.60;;;21.27;;
26690;SDS011;14307;51.718;8.938;2022-07-05T07:03:26;22.38;;;21.08;;
26690;SDS011;14307;51.718;8.938;2022-07-05T07:06:13;23.02;;;21.38;;
26690;SDS011;14307;51.718;8.938;2022-07-05T07:08:41;22.85;;;21.40;;
26690;SDS011;14307;51.718;8.938;2022-07-05T07:11:27;21.98;;;20.63;;
26690;SDS011;14307;51.718;8.938;2022-07-05T07:13:54;23.90;;;22.20;;
26690;SDS011;14307;51.718;8.938;2022-07-05T07:16:20;22.67;;;21.42;;
26690;SDS011;14307;51.718;8.938;2022-07-05T07:18:47;24.08;;;21.88;;
26690;SDS011;14307;51.718;8.938;2022-07-05T07:21:34;23.38;;;21.98;;
26690;SDS011;14307;51.718;8.938;2022-07-05T07:24:01;23.10;;;21.45;;
26690;SDS011;14307;51.718;8.938;2022-07-05T07:26:28;24.42;;;22.92;;
26690;SDS011;14307;51.718;8.938;2022-07-05T07:28:55;23.67;;;22.27;;
26690;SDS011;14307;51.718;8.938;2022-07-05T07:31:22;23.15;;;21.75;;
26690;SDS011;14307;51.718;8.938;2022-07-05T07:33:51;23.23;;;21.92;;
26690;SDS011;14307;51.718;8.938;2022-07-05T07:36:18;23.50;;;21.70;;
26690;SDS011;14307;51.718;8.938;2022-07-05T07:38:45;23.73;;;22.33;;
26690;SDS011;14307;51.718;8.938;2022-07-05T07:41:10;23.02;;;21.73;;
26690;SDS011;14307;51.718;8.938;2022-07-05T07:43:37;24.13;;;22.63;;
26690;SDS011;14307;51.718;8.938;2022-07-05T07:46:04;23.42;;;21.73;;
26690;SDS011;14307;51.718;8.938;2022-07-05T07:48:30;23.65;;;22.15;;
26690;SDS011;14307;51.718;8.938;2022-07-05T07:50:57;23.65;;;22.05;;
26690;SDS011;14307;51.718;8.938;2022-07-05T07:53:24;22.67;;;21.38;;
26690;SDS011;14307;51.718;8.938;2022-07-05T07:55:51;21.65;;;20.42;;
26690;SDS011;14307;51.718;8.938;2022-07-05T07:58:18;22.67;;;21.30;;
26690;SDS011;14307;51.718;8.938;2022-07-05T08:00:45;21.38;;;20.08;;
26690;SDS011;14307;51.718;8.938;2022-07-05T08:03:12;22.70;;;21.20;;
26690;SDS011;14307;51.718;8.938;2022-07-05T08:05:39;21.02;;;19.58;;
26690;SDS011;14307;51.718;8.938;2022-07-05T08:08:06;21.33;;;20.02;;
26690;SDS011;14307;51.718;8.938;2022-07-05T08:10:32;21.15;;;19.92;;
26690;SDS011;14307;51.718;8.938;2022-07-05T08:12:59;22.10;;;20.73;;
26690;SDS011;14307;51.718;8.938;2022-07-05T08:15:26;21.98;;;20.42;;
26690;SDS011;14307;51.718;8.938;2022-07-05T08:17:53;22.35;;;20.95;;
26690;SDS011;14307;51.718;8.938;2022-07-05T08:20:38;21.35;;;20.25;;
26690;SDS011;14307;51.718;8.938;2022-07-05T08:23:24;21.77;;;20.55;;
26690;SDS011;14307;51.718;8.938;2022-07-05T08:25:57;22.77;;;21.38;;
26690;SDS011;14307;51.718;8.938;2022-07-05T08:28:24;22.20;;;21.00;;
26690;SDS011;14307;51.718;8.938;2022-07-05T08:30:52;28.42;;;21.77;;
26690;SDS011;14307;51.718;8.938;2022-07-05T08:33:19;23.05;;;21.65;;
26690;SDS011;14307;51.718;8.938;2022-07-05T08:35:45;22.73;;;21.40;;
26690;SDS011;14307;51.718;8.938;2022-07-05T08:38:12;23.00;;;21.75;;
26690;SDS011;14307;51.718;8.938;2022-07-05T08:40:39;23.50;;;22.00;;
26690;SDS011;14307;51.718;8.938;2022-07-05T08:43:15;23.35;;;21.70;;
26690;SDS011;14307;51.718;8.938;2022-07-05T08:45:42;23.83;;;22.30;;
26690;SDS011;14307;51.718;8.938;2022-07-05T08:48:10;23.65;;;22.17;;
26690;SDS011;14307;51.718;8.938;2022-07-05T08:50:38;23.58;;;21.90;;
26690;SDS011;14307;51.718;8.938;2022-07-05T08:53:06;23.92;;;22.40;;
26690;SDS011;14307;51.718;8.938;2022-07-05T08:55:33;23.52;;;21.65;;
26690;SDS011;14307;51.718;8.938;2022-07-05T08:58:00;23.10;;;21.70;;
26690;SDS011;14307;51.718;8.938;2022-07-05T09:00:28;22.98;;;21.58;;
26690;SDS011;14307;51.718;8.938;2022-07-05T09:02:55;23.35;;;21.83;;
26690;SDS011;14307;51.718;8.938;2022-07-05T09:05:23;23.63;;;22.33;;
26690;SDS011;14307;51.718;8.938;2022-07-05T09:07:59;25.58;;;23.77;;
26690;SDS011;14307;51.718;8.938;2022-07-05T09:10:28;24.30;;;22.70;;
26690;SDS011;14307;51.718;8.938;2022-07-05T09:12:56;23.35;;;21.95;;
26690;SDS011;14307;51.718;8.938;2022-07-05T09:15:24;23.80;;;22.20;;
26690;SDS011;14307;51.718;8.938;2022-07-05T09:17:51;23.48;;;22.05;;
26690;SDS011;14307;51.718;8.938;2022-07-05T09:20:18;22.35;;;20.85;;
26690;SDS011;14307;51.718;8.938;2022-07-05T09:25:16;23.45;;;21.95;;
26690;SDS011;14307;51.718;8.938;2022-07-05T09:27:55;23.08;;;21.58;;
26690;SDS011;14307;51.718;8.938;2022-07-05T09:30:36;24.90;;;22.92;;
26690;SDS011;14307;51.718;8.938;2022-07-05T09:33:10;24.35;;;22.63;;
26690;SDS011;14307;51.718;8.938;2022-07-05T09:35:39;24.55;;;23.00;;
26690;SDS011;14307;51.718;8.938;2022-07-05T09:38:16;24.52;;;23.02;;
26690;SDS011;14307;51.718;8.938;2022-07-05T09:40:49;25.33;;;23.52;;
26690;SDS011;14307;51.718;8.938;2022-07-05T09:43:18;24.10;;;22.38;;
26690;SDS011;14307;51.718;8.938;2022-07-05T09:45:50;25.02;;;23.38;;
26690;SDS011;14307;51.718;8.938;2022-07-05T09:48:17;24.17;;;22.27;;
26690;SDS011;14307;51.718;8.938;2022-07-05T09:51:12;25.02;;;23.30;;
26690;SDS011;14307;51.718;8.938;2022-07-05T09:54:00;25.00;;;23.50;;
26690;SDS011;14307;51.718;8.938;2022-07-05T09:56:46;23.80;;;22.40;;
26690;SDS011;14307;51.718;8.938;2022-07-05T09:59:15;23.73;;;21.88;;
26690;SDS011;14307;51.718;8.938;2022-07-05T10:01:45;24.48;;;22.98;;
26690;SDS011;14307;51.718;8.938;2022-07-05T10:04:12;23.70;;;22.13;;
26690;SDS011;14307;51.718;8.938;2022-07-05T10:06:40;26.38;;;24.73;;
26690;SDS011;14307;51.718;8.938;2022-07-05T10:09:08;22.80;;;21.40;;
26690;SDS011;14307;51.718;8.938;2022-07-05T10:11:38;25.25;;;23.55;;
26690;SDS011;14307;51.718;8.938;2022-07-05T10:14:11;23.42;;;22.00;;
26690;SDS011;14307;51.718;8.938;2022-07-05T10:16:41;27.03;;;25.23;;
26690;SDS011;14307;51.718;8.938;2022-07-05T10:19:19;24.55;;;22.85;;
26690;SDS011;14307;51.718;8.938;2022-07-05T10:21:49;25.00;;;23.23;;
26690;SDS011;14307;51.718;8.938;2022-07-05T10:24:36;24.80;;;23.10;;
26690;SDS011;14307;51.718;8.938;2022-07-05T10:27:05;23.40;;;21.80;;
26690;SDS011;14307;51.718;8.938;2022-07-05T10:29:34;24.77;;;23.13;;
26690;SDS011;14307;51.718;8.938;2022-07-05T10:32:03;24.17;;;22.38;;
26690;SDS011;14307;51.718;8.938;2022-07-05T10:34:32;23.52;;;21.73;;
26690;SDS011;14307;51.718;8.938;2022-07-05T10:37:19;27.27;;;25.52;;
26690;SDS011;14307;51.718;8.938;2022-07-05T10:39:45;24.38;;;22.80;;
26690;SDS011;14307;51.718;8.938;2022-07-05T10:42:13;25.77;;;24.10;;
26690;SDS011;14307;51.718;8.938;2022-07-05T10:44:41;24.23;;;22.63;;
26690;SDS011;14307;51.718;8.938;2022-07-05T10:47:08;24.48;;;22.77;;
26690;SDS011;14307;51.718;8.938;2022-07-05T10:49:38;24.90;;;23.20;;
26690;SDS011;14307;51.718;8.938;2022-07-05T10:52:22;27.60;;;25.73;;
26690;SDS011;14307;51.718;8.938;2022-07-05T10:57:44;25.52;;;23.92;;
26690;SDS011;14307;51.718;8.938;2022-07-05T11:00:31;27.40;;;25.55;;
26690;SDS011;14307;51.718;8.938;2022-07-05T11:03:08;23.75;;;22.20;;
26690;SDS011;14307;51.718;8.938;2022-07-05T11:06:04;25.67;;;23.98;;
26690;SDS011;14307;51.718;8.938;2022-07-05T11:12:07;24.80;;;23.30;;
26690;SDS011;14307;51.718;8.938;2022-07-05T11:14:44;26.85;;;25.05;;
26690;SDS011;14307;51.718;8.938;2022-07-05T11:17:19;26.92;;;25.23;;
26690;SDS011;14307;51.718;8.938;2022-07-05T11:20:15;26.75;;;24.88;;
26690;SDS011;14307;51.718;8.938;2022-07-05T11:25:31;23.85;;;22.35;;
26690;SDS011;14307;51.718;8.938;2022-07-05T11:27:59;24.98;;;23.48;;
26690;SDS011;14307;51.718;8.938;2022-07-05T11:33:28;25.75;;;24.02;;
26690;SDS011;14307;51.718;8.938;2022-07-05T11:35:56;26.33;;;24.83;;
26690;SDS011;14307;51.718;8.938;2022-07-05T11:38:25;25.98;;;24.27;;
26690;SDS011;14307;51.718;8.938;2022-07-05T11:41:12;25.80;;;24.20;;
26690;SDS011;14307;51.718;8.938;2022-07-05T11:43:40;26.67;;;24.95;;
26690;SDS011;14307;51.718;8.938;2022-07-05T11:46:08;26.00;;;24.35;;
26690;SDS011;14307;51.718;8.938;2022-07-05T11:48:55;25.35;;;23.70;;
26690;SDS011;14307;51.718;8.938;2022-07-05T11:51:22;26.10;;;24.50;;
26690;SDS011;14307;51.718;8.938;2022-07-05T11:53:49;26.13;;;24.42;;
26690;SDS011;14307;51.718;8.938;2022-07-05T11:56:36;26.38;;;24.77;;
26690;SDS011;14307;51.718;8.938;2022-07-05T11:59:19;27.00;;;25.05;;
26690;SDS011;14307;51.718;8.938;2022-07-05T12:01:47;24.30;;;22.80;;
26690;SDS011;14307;51.718;8.938;2022-07-05T12:04:24;25.50;;;23.85;;
26690;SDS011;14307;51.718;8.938;2022-07-05T12:06:57;24.75;;;23.35;;
26690;SDS011;14307;51.718;8.938;2022-07-05T12:09:25;25.45;;;23.88;;
26690;SDS011;14307;51.718;8.938;2022-07-05T12:12:19;23.58;;;22.08;;
26690;SDS011;14307;51.718;8.938;2022-07-05T12:15:06;24.60;;;22.73;;
26690;SDS011;14307;51.718;8.938;2022-07-05T12:17:34;23.65;;;21.88;;
26690;SDS011;14307;51.718;8.938;2022-07-05T12:20:02;26.08;;;24.13;;
26690;SDS011;14307;51.718;8.938;2022-07-05T12:22:33;25.27;;;23.77;;
26690;SDS011;14307;51.718;8.938;2022-07-05T12:25:03;25.95;;;24.27;;
26690;SDS011;14307;51.718;8.938;2022-07-05T12:27:32;26.30;;;24.80;;
26690;SDS011;14307;51.718;8.938;2022-07-05T12:30:00;24.10;;;22.58;;
26690;SDS011;14307;51.718;8.938;2022-07-05T12:32:29;26.63;;;24.73;;
26690;SDS011;14307;51.718;8.938;2022-07-05T12:34:57;25.67;;;24.08;;
26690;SDS011;14307;51.718;8.938;2022-07-05T12:40:06;26.10;;;24.58;;
26690;SDS011;14307;51.718;8.938;2022-07-05T12:42:36;26.85;;;25.13;;
26690;SDS011;14307;51.718;8.938;2022-07-05T12:45:14;26.83;;;25.30;;
26690;SDS011;14307;51.718;8.938;2022-07-05T12:47:53;27.05;;;25.17;;
26690;SDS011;14307;51.718;8.938;2022-07-05T12:50:24;26.88;;;25.17;;
26690;SDS011;14307;51.718;8.938;2022-07-05T12:52:56;25.88;;;24.45;;
26690;SDS011;14307;51.718;8.938;2022-07-05T12:58:45;26.08;;;24.55;;
26690;SDS011;14307;51.718;8.938;2022-07-05T13:01:27;27.98;;;26.13;;
26690;SDS011;14307;51.718;8.938;2022-07-05T13:09:34;28.85;;;27.05;;
26690;SDS011;14307;51.718;8.938;2022-07-05T13:14:51;28.08;;;26.48;;
26690;SDS011;14307;51.718;8.938;2022-07-05T13:17:20;29.35;;;27.65;;
26690;SDS011;14307;51.718;8.938;2022-07-05T13:19:49;29.17;;;27.50;;
26690;SDS011;14307;51.718;8.938;2022-07-05T13:22:17;29.33;;;27.52;;
26690;SDS011;14307;51.718;8.938;2022-07-05T13:24:45;28.67;;;27.08;;
26690;SDS011;14307;51.718;8.938;2022-07-05T13:27:12;30.13;;;28.33;;
26690;SDS011;14307;51.718;8.938;2022-07-05T13:29:39;25.92;;;24.35;;
26690;SDS011;14307;51.718;8.938;2022-07-05T13:32:06;30.33;;;28.35;;
26690;SDS011;14307;51.718;8.938;2022-07-05T13:34:34;29.50;;;27.70;;
26690;SDS011;14307;51.718;8.938;2022-07-05T13:37:01;27.98;;;26.33;;
26690;SDS011;14307;51.718;8.938;2022-07-05T13:39:28;28.77;;;26.88;;
26690;SDS011;14307;51.718;8.938;2022-07-05T13:41:56;28.70;;;26.90;;
26690;SDS011;14307;51.718;8.938;2022-07-05T13:44:23;27.55;;;25.95;;
26690;SDS011;14307;51.718;8.938;2022-07-05T13:46:50;28.60;;;26.80;;
26690;SDS011;14307;51.718;8.938;2022-07-05T13:49:17;27.55;;;25.65;;
26690;SDS011;14307;51.718;8.938;2022-07-05T13:51:46;26.45;;;24.75;;
26690;SDS011;14307;51.718;8.938;2022-07-05T13:54:13;29.52;;;27.45;;
26690;SDS011;14307;51.718;8.938;2022-07-05T13:56:40;29.23;;;27.25;;
26690;SDS011;14307;51.718;8.938;2022-07-05T13:59:07;28.40;;;26.50;;
26690;SDS011;14307;51.718;8.938;2022-07-05T14:01:34;27.85;;;26.25;;
26690;SDS011;14307;51.718;8.938;2022-07-05T14:04:01;28.98;;;27.17;;
26690;SDS011;14307;51.718;8.938;2022-07-05T14:06:29;28.02;;;26.33;;
26690;SDS011;14307;51.718;8.938;2022-07-05T14:08:57;28.30;;;26.58;;
26690;SDS011;14307;51.718;8.938;2022-07-05T14:11:24;26.75;;;25.15;;
26690;SDS011;14307;51.718;8.938;2022-07-05T14:13:53;28.05;;;26.17;;
26690;SDS011;14307;51.718;8.938;2022-07-05T14:16:20;26.88;;;25.08;;
26690;SDS011;14307;51.718;8.938;2022-07-05T14:18:48;28.95;;;27.23;;
26690;SDS011;14307;51.718;8.938;2022-07-05T14:21:16;26.67;;;24.77;;
26690;SDS011;14307;51.718;8.938;2022-07-05T14:23:46;28.42;;;26.83;;
26690;SDS011;14307;51.718;8.938;2022-07-05T14:26:14;28.30;;;26.50;;
26690;SDS011;14307;51.718;8.938;2022-07-05T14:28:41;27.33;;;25.63;;
26690;SDS011;14307;51.718;8.938;2022-07-05T14:31:08;26.33;;;24.73;;
26690;SDS011;14307;51.718;8.938;2022-07-05T14:33:36;27.23;;;25.60;;
26690;SDS011;14307;51.718;8.938;2022-07-05T14:36:07;27.45;;;25.85;;
26690;SDS011;14307;51.718;8.938;2022-07-05T14:38:34;27.13;;;25.58;;
26690;SDS011;14307;51.718;8.938;2022-07-05T14:41:00;27.27;;;25.67;;
26690;SDS011;14307;51.718;8.938;2022-07-05T14:43:27;25.67;;;24.17;;
26690;SDS011;14307;51.718;8.938;2022-07-05T14:45:55;26.67;;;24.83;;
26690;SDS011;14307;51.718;8.938;2022-07-05T14:48:23;27.65;;;25.67;;
26690;SDS011;14307;51.718;8.938;2022-07-05T14:50:50;26.20;;;24.60;;
26690;SDS011;14307;51.718;8.938;2022-07-05T14:53:24;27.98;;;26.38;;
26690;SDS011;14307;51.718;8.938;2022-07-05T14:55:51;27.70;;;26.00;;
26690;SDS011;14307;51.718;8.938;2022-07-05T14:58:18;27.85;;;26.08;;
26690;SDS011;14307;51.718;8.938;2022-07-05T15:00:45;28.83;;;27.13;;
26690;SDS011;14307;51.718;8.938;2022-07-05T15:03:12;28.38;;;26.58;;
26690;SDS011;14307;51.718;8.938;2022-07-05T15:05:39;27.73;;;26.02;;
26690;SDS011;14307;51.718;8.938;2022-07-05T15:08:06;28.10;;;26.40;;